Terminal Aerodrome Forecast
Issued by NWS

Home | Current Version | Previous Version | Text Only | Print | Product List | Glossary On
Versions: 1 2 3 4 5 6 7 8 9 10 11 12 13 14 15 16 17
000
FTUS44 KJAN 022300
TAFHKS
TAF
KHKS 022320Z 0300/0324 01006KT 2SM -RA BR OVC002
     FM030100 03003KT 1 1/2SM BR OVC002
     FM030400 06003KT 1/2SM FG OVC001
     FM030600 VRB03KT 1/4SM FG OVC001
     FM031400 17005KT 1/2SM FG OVC003
     FM031700 17009KT 4SM BR OVC006
     FM032000 17008KT 6SM BR OVC008=

USA.gov is the U.S. government's official web portal to all federal, state and local government web resources and services.